createdAt,value
2022-11-29T00:01:42.188Z,40.30
2022-11-29T00:04:10.796Z,41.97
2022-11-29T00:06:39.492Z,42.30
2022-11-29T00:09:12.708Z,40.07
2022-11-29T00:11:59.853Z,34.57
2022-11-29T00:14:29.120Z,36.87
2022-11-29T00:17:02.372Z,42.60
2022-11-29T00:19:31.640Z,36.37
2022-11-29T00:22:00.099Z,39.20
2022-11-29T00:24:31.690Z,35.97
2022-11-29T00:27:00.381Z,33.03
2022-11-29T00:29:29.255Z,44.53
2022-11-29T00:31:57.289Z,36.33
2022-11-29T00:34:25.608Z,36.63
2022-11-29T00:36:53.762Z,39.30
2022-11-29T00:39:21.972Z,37.70
2022-11-29T00:41:51.578Z,35.37
2022-11-29T00:44:20.746Z,40.23
2022-11-29T00:46:49.861Z,36.17
2022-11-29T00:49:18.397Z,37.17
2022-11-29T00:51:46.621Z,32.37
2022-11-29T00:54:14.740Z,35.23
2022-11-29T00:56:43.091Z,36.40
2022-11-29T00:59:12.598Z,37.07
2022-11-29T01:01:40.746Z,34.13
2022-11-29T01:04:08.947Z,38.53
2022-11-29T01:06:37.073Z,32.90
2022-11-29T01:09:05.532Z,31.30
2022-11-29T01:11:33.954Z,34.10
2022-11-29T01:14:04.483Z,31.80
2022-11-29T01:16:34.225Z,34.23
2022-11-29T01:19:02.696Z,36.47
2022-11-29T01:21:31.346Z,31.13
2022-11-29T01:24:00.811Z,37.77
2022-11-29T01:26:30.965Z,31.67
2022-11-29T01:28:59.907Z,34.17
2022-11-29T01:31:30.619Z,35.73
2022-11-29T01:34:02.177Z,36.17
2022-11-29T01:36:30.564Z,34.97
2022-11-29T01:39:00.708Z,33.10
2022-11-29T01:41:32.042Z,34.87
2022-11-29T01:44:04.007Z,38.80
2022-11-29T01:46:34.813Z,29.53
2022-11-29T01:49:09.583Z,39.00
2022-11-29T01:51:40.598Z,39.00
2022-11-29T01:54:11.270Z,33.73
2022-11-29T01:56:40.123Z,34.73
2022-11-29T01:59:12.502Z,34.27
2022-11-29T02:01:40.715Z,31.70
2022-11-29T02:04:10.524Z,31.63
2022-11-29T02:06:40.374Z,32.50
2022-11-29T02:09:19.014Z,33.30
2022-11-29T02:12:07.267Z,33.60
2022-11-29T02:14:48.528Z,31.87
2022-11-29T02:17:25.928Z,33.20
2022-11-29T02:20:21.234Z,28.63
2022-11-29T02:22:57.628Z,35.53
2022-11-29T02:25:40.340Z,32.00
2022-11-29T02:28:56.428Z,31.53
2022-11-29T02:31:52.053Z,26.40
2022-11-29T02:34:39.250Z,33.53
2022-11-29T02:37:29.854Z,31.83
2022-11-29T02:40:27.025Z,33.50
2022-11-29T02:43:18.175Z,32.17
2022-11-29T02:45:54.892Z,33.10
2022-11-29T02:48:42.729Z,32.63
2022-11-29T02:51:19.233Z,34.10
2022-11-29T02:53:56.999Z,33.20
2022-11-29T02:56:30.686Z,34.60
2022-11-29T02:59:04.741Z,34.03
2022-11-29T03:01:41.272Z,36.10
2022-11-29T03:04:19.729Z,34.10
2022-11-29T03:06:58.719Z,35.80
2022-11-29T03:09:37.966Z,34.90
2022-11-29T03:12:18.857Z,31.80
2022-11-29T03:14:58.180Z,40.00
2022-11-29T03:17:38.565Z,36.53
2022-11-29T03:20:23.852Z,36.07
2022-11-29T03:23:11.695Z,34.40
2022-11-29T03:25:45.567Z,38.83
2022-11-29T03:28:19.984Z,32.93
2022-11-29T03:30:54.479Z,36.10
2022-11-29T03:33:29.880Z,33.43
2022-11-29T03:36:06.422Z,37.77
2022-11-29T03:38:41.979Z,34.20
2022-11-29T03:41:22.029Z,39.17
2022-11-29T03:43:58.717Z,37.10
2022-11-29T03:46:33.978Z,36.37
2022-11-29T03:49:05.657Z,34.27
2022-11-29T03:51:48.295Z,40.47
2022-11-29T03:54:24.081Z,34.17
2022-11-29T03:56:52.970Z,32.60
2022-11-29T03:59:36.685Z,35.63
2022-11-29T04:02:31.384Z,37.47
2022-11-29T04:05:30.205Z,37.23
2022-11-29T04:08:23.163Z,35.20
2022-11-29T04:11:20.524Z,44.80
2022-11-29T04:14:14.385Z,49.60
2022-11-29T04:17:08.573Z,38.97
2022-11-29T04:20:13.102Z,32.93
2022-11-29T04:23:03.384Z,35.43
2022-11-29T04:26:02.884Z,36.17
2022-11-29T04:29:04.850Z,38.40
2022-11-29T04:31:42.343Z,38.87
2022-11-29T04:34:29.473Z,35.73
2022-11-29T04:37:20.102Z,43.10
2022-11-29T04:40:25.841Z,33.40
2022-11-29T04:43:18.994Z,42.23
2022-11-29T04:46:27.945Z,38.07
2022-11-29T04:49:20.783Z,39.60
2022-11-29T04:52:20.495Z,41.23
2022-11-29T04:54:56.021Z,39.17
2022-11-29T04:57:32.011Z,42.53
2022-11-29T05:00:08.348Z,43.83
2022-11-29T05:02:42.570Z,43.37
2022-11-29T05:05:25.288Z,40.00
2022-11-29T05:08:10.255Z,37.07
2022-11-29T05:10:46.435Z,36.40
2022-11-29T05:13:21.028Z,36.67
2022-11-29T05:16:08.673Z,41.97
2022-11-29T05:18:58.898Z,39.60
2022-11-29T05:21:39.371Z,40.80
2022-11-29T05:24:20.909Z,38.77
2022-11-29T05:26:56.656Z,40.00
2022-11-29T05:29:34.696Z,41.40
2022-11-29T05:32:23.308Z,37.23
2022-11-29T05:35:08.634Z,37.93
2022-11-29T05:37:47.050Z,40.70
2022-11-29T05:40:41.077Z,34.73
2022-11-29T05:43:21.974Z,36.20
2022-11-29T05:45:57.019Z,34.00
2022-11-29T05:48:31.230Z,38.47
2022-11-29T05:51:11.560Z,33.37
2022-11-29T05:53:51.535Z,33.10
2022-11-29T05:56:27.696Z,33.83
2022-11-29T05:59:00.561Z,40.90
2022-11-29T06:01:33.126Z,31.27
2022-11-29T06:04:11.784Z,36.20
2022-11-29T06:06:49.593Z,32.60
2022-11-29T06:09:27.683Z,40.47
2022-11-29T06:12:02.611Z,36.10
2022-11-29T06:14:53.313Z,32.63
2022-11-29T06:17:48.944Z,35.30
2022-11-29T06:20:50.316Z,44.47
2022-11-29T06:23:48.855Z,36.97
2022-11-29T06:26:36.313Z,41.53
2022-11-29T06:29:25.458Z,31.37
2022-11-29T06:32:02.636Z,33.80
2022-11-29T06:34:45.794Z,39.03
2022-11-29T06:37:18.903Z,37.73
2022-11-29T06:39:47.485Z,33.57
2022-11-29T06:42:17.658Z,32.67
2022-11-29T06:44:46.833Z,35.00
2022-11-29T06:47:24.875Z,42.90
2022-11-29T06:49:59.773Z,36.97
2022-11-29T06:52:41.304Z,35.47
2022-11-29T06:55:18.548Z,35.40
2022-11-29T06:58:05.053Z,37.67
2022-11-29T07:00:44.026Z,35.47
2022-11-29T07:03:38.904Z,38.33
2022-11-29T07:06:16.118Z,35.00
2022-11-29T07:08:45.424Z,32.67
2022-11-29T07:11:16.242Z,34.87
2022-11-29T07:13:47.174Z,36.53
2022-11-29T07:16:27.067Z,33.80
2022-11-29T07:19:12.023Z,36.33
2022-11-29T07:21:50.518Z,33.73
2022-11-29T07:24:42.504Z,32.43
2022-11-29T07:27:36.243Z,29.40
2022-11-29T07:30:15.590Z,32.10
2022-11-29T07:33:00.464Z,34.33
2022-11-29T07:35:40.276Z,32.87
2022-11-29T07:38:20.618Z,39.87
2022-11-29T07:40:57.209Z,29.47
2022-11-29T07:43:42.644Z,31.63
2022-11-29T07:46:12.527Z,26.77
2022-11-29T07:48:43.737Z,31.93
2022-11-29T07:51:12.639Z,34.37
2022-11-29T07:53:44.147Z,33.47
2022-11-29T07:56:12.890Z,34.30
2022-11-29T07:58:42.175Z,33.57
2022-11-29T08:01:12.113Z,30.77
2022-11-29T08:03:42.528Z,29.53
2022-11-29T08:06:10.922Z,30.43
2022-11-29T08:08:43.700Z,25.20
2022-11-29T08:11:29.625Z,29.97
2022-11-29T08:14:02.345Z,32.80
2022-11-29T08:16:54.745Z,28.83
2022-11-29T08:19:46.123Z,23.80
2022-11-29T08:25:26.300Z,31.70
2022-11-29T08:28:11.210Z,29.47
2022-11-29T08:30:47.286Z,29.40
2022-11-29T08:33:17.749Z,28.27
2022-11-29T08:35:46.704Z,27.73
2022-11-29T08:38:18.103Z,25.43
2022-11-29T08:40:47.776Z,29.33
2022-11-29T08:43:18.839Z,23.30
2022-11-29T08:45:47.760Z,28.10
2022-11-29T08:48:20.613Z,26.00
2022-11-29T08:50:52.050Z,25.00
2022-11-29T08:53:39.566Z,22.97
2022-11-29T08:56:41.631Z,25.93
2022-11-29T08:58:57.868Z,25.77
2022-11-29T09:01:27.309Z,27.90
2022-11-29T09:04:03.603Z,28.30
2022-11-29T09:06:33.922Z,24.10
2022-11-29T09:09:03.741Z,29.43
2022-11-29T09:11:35.086Z,23.47
2022-11-29T09:14:06.026Z,23.20
2022-11-29T09:16:37.621Z,26.07
2022-11-29T09:19:09.369Z,25.20
2022-11-29T09:21:38.056Z,25.17
2022-11-29T09:24:08.638Z,26.00
2022-11-29T09:26:38.448Z,21.43
2022-11-29T09:29:10.828Z,28.30
2022-11-29T09:31:39.649Z,25.43
2022-11-29T09:34:09.671Z,27.17
2022-11-29T09:36:40.874Z,27.00
2022-11-29T09:39:10.073Z,26.73
2022-11-29T09:42:03.217Z,20.90
2022-11-29T09:44:41.886Z,26.50
2022-11-29T09:47:29.718Z,24.30
2022-11-29T09:50:14.783Z,25.23
2022-11-29T09:53:06.067Z,22.20
2022-11-29T09:55:58.419Z,27.10
2022-11-29T09:58:41.627Z,28.47
2022-11-29T10:01:22.006Z,22.77
2022-11-29T10:06:42.129Z,23.63
2022-11-29T10:09:23.869Z,23.10
2022-11-29T10:12:03.042Z,24.93
2022-11-29T10:14:37.667Z,24.17
2022-11-29T10:20:52.155Z,22.80
2022-11-29T10:23:30.922Z,23.97
2022-11-29T10:26:03.424Z,23.27
2022-11-29T10:28:35.197Z,25.33
2022-11-29T10:31:31.462Z,26.67
2022-11-29T10:34:02.442Z,25.33
2022-11-29T10:36:36.572Z,23.10
2022-11-29T10:39:15.274Z,26.43
2022-11-29T11:12:24.740Z,23.67
2022-11-29T11:14:53.623Z,25.20
2022-11-29T11:17:26.495Z,29.10
2022-11-29T11:20:01.043Z,21.40
2022-11-29T11:22:31.391Z,27.33
2022-11-29T11:25:03.921Z,22.63
2022-11-29T11:27:39.840Z,24.90
2022-11-29T11:30:25.291Z,22.83
2022-11-29T11:33:09.007Z,21.30
2022-11-29T11:35:39.259Z,24.10
2022-11-29T11:38:16.254Z,26.47
2022-11-29T11:40:44.972Z,21.10
2022-11-29T11:43:22.049Z,24.43
2022-11-29T11:45:54.972Z,27.10
2022-11-29T11:48:24.182Z,20.37
2022-11-29T11:50:56.588Z,26.70
2022-11-29T11:53:30.007Z,21.93
2022-11-29T11:56:02.041Z,23.50
2022-11-29T11:58:36.749Z,24.67
2022-11-29T12:01:16.788Z,20.60
2022-11-29T12:03:56.329Z,19.20
2022-11-29T12:06:33.604Z,28.23
2022-11-29T12:09:08.786Z,20.00
2022-11-29T12:11:44.784Z,23.60
2022-11-29T12:14:25.327Z,22.57
2022-11-29T12:17:03.441Z,22.27
2022-11-29T12:19:41.064Z,26.03
2022-11-29T12:22:16.223Z,21.67
2022-11-29T12:24:57.273Z,22.73
2022-11-29T12:27:28.757Z,22.33
2022-11-29T12:29:58.912Z,20.80
2022-11-29T12:32:50.971Z,18.73
2022-11-29T12:35:40.955Z,23.37
2022-11-29T12:38:23.471Z,21.30
2022-11-29T12:41:04.389Z,22.93
2022-11-29T12:43:48.994Z,21.77
2022-11-29T12:46:26.119Z,21.50
2022-11-29T12:49:01.905Z,18.23
2022-11-29T12:51:40.014Z,18.20
2022-11-29T12:54:21.640Z,20.00
2022-11-29T12:56:57.810Z,19.97
2022-11-29T12:59:38.131Z,21.07
2022-11-29T13:02:23.995Z,18.30
2022-11-29T13:05:08.335Z,21.83
2022-11-29T13:07:45.165Z,17.00
2022-11-29T13:10:35.873Z,17.73
2022-11-29T13:13:18.013Z,19.80
2022-11-29T13:15:51.943Z,18.93
2022-11-29T13:18:27.426Z,19.70
2022-11-29T13:21:02.751Z,16.80
2022-11-29T13:24:07.189Z,21.70
2022-11-29T13:26:27.450Z,23.70
2022-11-29T13:28:56.472Z,18.73
2022-11-29T13:31:26.337Z,17.53
2022-11-29T13:34:06.027Z,19.80
2022-11-29T13:36:49.150Z,15.47
2022-11-29T13:39:31.049Z,19.63
2022-11-29T13:42:07.749Z,18.97
2022-11-29T13:44:43.142Z,18.20
2022-11-29T13:47:14.020Z,20.13
2022-11-29T13:49:55.212Z,17.37
2022-11-29T13:52:44.170Z,16.63
2022-11-29T13:55:34.192Z,23.97
2022-11-29T13:58:16.829Z,19.20
2022-11-29T14:00:51.774Z,22.37
2022-11-29T14:03:36.232Z,20.50
2022-11-29T14:06:21.245Z,17.93
2022-11-29T14:09:32.138Z,15.60
2022-11-29T14:12:05.781Z,20.63
2022-11-29T14:14:41.133Z,19.27
2022-11-29T14:17:35.219Z,18.77
2022-11-29T14:20:52.209Z,17.90
2022-11-29T14:23:43.502Z,20.07
2022-11-29T14:26:31.181Z,21.50
2022-11-29T14:29:00.669Z,23.20
2022-11-29T14:31:48.445Z,17.60
2022-11-29T14:34:28.058Z,21.00
2022-11-29T14:37:04.815Z,21.20
2022-11-29T14:39:43.647Z,21.23
2022-11-29T14:42:17.141Z,21.40
2022-11-29T14:44:49.016Z,20.00
2022-11-29T14:47:24.761Z,19.87
2022-11-29T14:49:55.270Z,21.10
2022-11-29T15:31:50.659Z,19.90
2022-11-29T15:34:31.065Z,20.20
2022-11-29T15:36:59.809Z,22.03
2022-11-29T15:39:31.468Z,25.17
2022-11-29T15:42:04.630Z,22.40
2022-11-29T15:44:35.278Z,22.80
2022-11-29T15:47:16.851Z,20.60
2022-11-29T15:49:46.270Z,20.63
2022-11-29T15:52:30.939Z,23.20
2022-11-29T15:55:02.299Z,26.50
2022-11-29T15:57:36.115Z,25.50
2022-11-29T16:00:09.128Z,22.23
2022-11-29T16:02:41.048Z,20.53
2022-11-29T16:05:17.422Z,20.10
2022-11-29T16:07:47.303Z,22.27
2022-11-29T16:10:19.660Z,18.53
2022-11-29T16:12:56.064Z,18.77
2022-11-29T16:15:30.214Z,22.80
2022-11-29T16:18:04.803Z,21.90
2022-11-29T16:20:34.592Z,22.03
2022-11-29T16:23:12.433Z,20.00
2022-11-29T16:26:00.205Z,20.63
2022-11-29T16:28:34.026Z,19.27
2022-11-29T16:31:02.221Z,21.83
2022-11-29T16:33:30.400Z,22.00
2022-11-29T16:36:08.052Z,24.47
2022-11-29T16:38:36.061Z,23.30
2022-11-29T16:41:07.324Z,17.80
2022-11-29T16:43:53.954Z,23.50
2022-11-29T16:46:33.738Z,21.33
2022-11-29T16:49:04.644Z,23.60
2022-11-29T16:51:43.878Z,24.40
2022-11-29T16:54:24.402Z,18.70
2022-11-29T16:56:54.167Z,17.87
2022-11-29T16:59:27.892Z,19.83
2022-11-29T17:01:56.789Z,23.60
2022-11-29T17:04:25.712Z,20.30
2022-11-29T17:06:55.985Z,20.30
2022-11-29T17:09:26.270Z,17.43
2022-11-29T17:11:55.076Z,25.27
2022-11-29T17:14:23.262Z,21.93
2022-11-29T17:16:52.145Z,19.00
2022-11-29T17:19:25.584Z,21.13
2022-11-29T17:21:55.281Z,20.43
2022-11-29T17:24:24.617Z,14.50
2022-11-29T17:26:52.971Z,13.70
2022-11-29T17:29:21.185Z,20.13
2022-11-29T17:31:50.701Z,20.40
2022-11-29T17:34:19.198Z,17.70
2022-11-29T17:36:47.657Z,18.77
2022-11-29T17:39:20.225Z,18.53
2022-11-29T17:41:48.613Z,18.40
2022-11-29T17:44:16.891Z,21.40
2022-11-29T17:46:45.060Z,16.83
2022-11-29T17:49:13.342Z,16.33
2022-11-29T17:51:57.199Z,15.40
2022-11-29T17:54:27.058Z,19.63
2022-11-29T17:56:55.173Z,18.33
2022-11-29T17:59:23.387Z,18.87
2022-11-29T18:01:51.687Z,16.80
2022-11-29T18:04:19.844Z,18.17
2022-11-29T18:06:50.476Z,15.73
2022-11-29T18:09:20.029Z,14.43
2022-11-29T18:11:50.913Z,15.73
2022-11-29T18:14:21.309Z,14.33
2022-11-29T18:16:50.109Z,12.17
2022-11-29T18:19:20.830Z,13.50
2022-11-29T18:21:50.713Z,12.80
2022-11-29T18:24:19.150Z,16.47
2022-11-29T18:26:47.838Z,15.23
2022-11-29T18:29:17.527Z,18.67
2022-11-29T18:31:46.893Z,14.87
2022-11-29T18:34:16.239Z,14.60
2022-11-29T18:36:46.085Z,13.10
2022-11-29T18:39:16.540Z,16.13
2022-11-29T18:41:46.905Z,15.37
2022-11-29T18:44:18.201Z,16.20
2022-11-29T18:46:46.767Z,17.20
2022-11-29T18:49:16.706Z,19.60
2022-11-29T18:51:46.329Z,15.07
2022-11-29T18:54:15.375Z,15.67
2022-11-29T18:56:44.220Z,12.10
2022-11-29T18:59:14.861Z,12.63
2022-11-29T19:01:45.671Z,17.57
2022-11-29T19:04:15.484Z,12.67
2022-11-29T19:06:44.359Z,14.30
2022-11-29T19:09:15.078Z,16.20
2022-11-29T19:11:43.383Z,13.93
2022-11-29T19:14:13.600Z,14.73
2022-11-29T19:16:43.346Z,13.90
2022-11-29T19:19:13.546Z,14.33
2022-11-29T19:21:42.413Z,13.77
2022-11-29T19:24:17.908Z,12.73
2022-11-29T19:26:48.007Z,14.30
2022-11-29T19:29:17.576Z,12.23
2022-11-29T19:31:45.872Z,12.43
2022-11-29T19:34:15.714Z,13.90
2022-11-29T19:36:44.986Z,16.67
2022-11-29T19:39:15.902Z,11.60
2022-11-29T19:41:45.551Z,13.07
2022-11-29T19:44:14.340Z,15.40
2022-11-29T19:46:44.489Z,13.73
2022-11-29T19:49:13.299Z,16.80
2022-11-29T19:51:42.912Z,13.00
2022-11-29T19:54:12.094Z,14.30
2022-11-29T19:56:40.998Z,13.60
2022-11-29T19:59:09.882Z,20.03
2022-11-29T20:01:41.392Z,15.30
2022-11-29T20:04:11.880Z,17.40
2022-11-29T20:06:43.328Z,15.37
2022-11-29T20:09:11.997Z,18.80
2022-11-29T20:11:40.273Z,14.23
2022-11-29T20:14:09.354Z,13.17
2022-11-29T20:16:39.297Z,19.53
2022-11-29T20:19:11.031Z,13.80
2022-11-29T20:21:44.839Z,14.00
2022-11-29T20:24:14.503Z,13.87
2022-11-29T20:26:44.539Z,18.63
2022-11-29T20:29:13.183Z,11.83
2022-11-29T20:31:49.087Z,12.70
2022-11-29T20:34:19.592Z,14.83
2022-11-29T20:37:09.475Z,12.70
2022-11-29T20:39:47.267Z,13.43
2022-11-29T20:42:41.533Z,14.97
2022-11-29T20:45:11.425Z,14.97
2022-11-29T20:47:46.552Z,11.40
2022-11-29T20:50:21.798Z,14.60
2022-11-29T20:53:04.707Z,12.67
2022-11-29T20:55:32.788Z,10.60
2022-11-29T20:58:00.908Z,13.60
2022-11-29T21:00:29.017Z,16.00
2022-11-29T21:02:57.052Z,13.63
2022-11-29T21:05:25.371Z,11.60
2022-11-29T21:07:55.835Z,15.00
2022-11-29T21:10:24.189Z,12.80
2022-11-29T21:12:53.296Z,15.37
2022-11-29T21:15:22.461Z,11.17
2022-11-29T21:17:51.109Z,13.10
2022-11-29T21:20:22.096Z,13.63
2022-11-29T21:22:59.897Z,13.30
2022-11-29T21:25:39.149Z,12.93
2022-11-29T21:28:12.421Z,12.40
2022-11-29T21:30:41.373Z,12.27
2022-11-29T21:33:10.721Z,14.10
2022-11-29T21:35:40.633Z,14.03
2022-11-29T21:38:14.660Z,17.70
2022-11-29T21:40:42.912Z,12.57
2022-11-29T21:43:10.967Z,14.13
2022-11-29T21:45:40.396Z,15.57
2022-11-29T21:48:28.850Z,14.60
2022-11-29T21:50:59.681Z,16.30
2022-11-29T21:53:29.428Z,15.00
2022-11-29T21:55:58.474Z,14.63
2022-11-29T21:58:27.168Z,16.47
2022-11-29T22:00:55.400Z,13.90
2022-11-29T22:03:23.972Z,16.43
2022-11-29T22:05:52.232Z,12.60
2022-11-29T22:08:20.466Z,14.90
2022-11-29T22:10:50.147Z,14.90
2022-11-29T22:13:18.178Z,17.40
2022-11-29T22:15:46.606Z,14.90
2022-11-29T22:18:14.823Z,14.50
2022-11-29T22:20:47.391Z,14.27
2022-11-29T22:23:15.566Z,15.27
2022-11-29T22:25:44.155Z,16.70
2022-11-29T22:28:14.683Z,16.60
2022-11-29T22:30:43.144Z,17.40
2022-11-29T22:33:13.412Z,13.73
2022-11-29T22:35:44.523Z,14.33
2022-11-29T22:38:13.218Z,13.50
2022-11-29T22:40:41.791Z,11.53
2022-11-29T22:43:10.127Z,16.43
2022-11-29T22:45:40.077Z,14.83
2022-11-29T22:48:08.843Z,14.23
2022-11-29T22:50:37.167Z,14.73
2022-11-29T22:53:05.669Z,13.27
2022-11-29T22:55:33.914Z,14.90
2022-11-29T22:58:02.232Z,17.97
2022-11-29T23:00:31.215Z,12.50
2022-11-29T23:03:00.919Z,16.10
2022-11-29T23:05:32.455Z,14.37
2022-11-29T23:08:01.317Z,16.17
2022-11-29T23:10:29.778Z,13.07
2022-11-29T23:12:58.492Z,17.07
2022-11-29T23:15:26.743Z,14.20
2022-11-29T23:17:55.198Z,11.27
2022-11-29T23:20:24.815Z,20.53
2022-11-29T23:22:53.037Z,16.10
2022-11-29T23:25:23.946Z,14.57
2022-11-29T23:27:54.137Z,15.67
2022-11-29T23:30:22.961Z,16.07
2022-11-29T23:32:51.498Z,14.90
2022-11-29T23:35:20.031Z,12.63
2022-11-29T23:37:49.822Z,12.30
2022-11-29T23:40:18.806Z,14.07
2022-11-29T23:42:52.325Z,13.40
2022-11-29T23:45:20.768Z,11.10
2022-11-29T23:47:49.029Z,12.13
2022-11-29T23:50:17.452Z,13.57
2022-11-29T23:52:45.663Z,16.53
2022-11-29T23:55:16.717Z,13.07
2022-11-29T23:57:44.813Z,14.37
